首页
METAR-TAF:

METAR-TAF

机场 :

Bluefields, 尼加拉瓜

纬度: 12-00N, 经度: 083-46W, 海拔: 5米

当前天气观测

该预报发布于13小时和8分钟前的23:00 UTC
风速4节,风向
温度 27°C
湿度 79%
气压 1011 hPa
能見度: 8000
散云层高于1800英尺
附近有, 雨

METAR: MNBL 232300Z 09004KT 8000 VCRA SCT018 27/23 Q1011 RA/E/SE/S

时间: 06:08 (12:08 UTC)

预报

该预报发布于13小时和56分钟前的22:12 UTC
预报有效从24日的 00点(UTC)到 24日的 24点(UTC)
风速10节,风向
能見度: 6000
散云层高于1600英尺
散云层高于8000英尺
附近有, 雨
从 24日的 0600点(UTC)
风速6节,风向东北
能见度10公里或以上
少量云层高于1800英尺
短暂存在
从 24日的 15点(UTC)到 24日的 19点(UTC)
风速10节,风向,有时为20节阵风
能見度: 8000
散云层高于1800英尺, 塔状积云.
附近有, 雨
从 24日的 2100点(UTC)
能见度10公里或以上
少量云层高于2000英尺

TAF: MNBL 232212Z 2400/2424 09010KT 6000 VCRA SCT016 SCT080 FM240600 05006KT 9999 FEW018 TEMPO 2415/2419 08010G20KT 8000 VCRA SCT018TCU FM242100 9999 FEW020

超过4000个机场的气象观测和天气预报(METAR&TAF报告)。

可查询的气象台以黄色和红色小点在地图上表示。

将鼠标移到小点上方,可查看气象台名称。

然后点击查看天气观测和预报。

如需切换地图:点击带黑十字的绿色按钮放大地图;点击带横线的绿色按钮缩小地图;或者点击绿色箭头查看邻近地区的地图。


METAR-TAF: